Pagrindinis puslapis
METAR-TAF:

METAR-TAF

Oro uostai :

Čengdu, Kinija

platuma: 30-40N, ilguma: 104-01E, Aukštis: 508 m

Dabartinis oras

Ataskaita buvo paskelbta 47 minutes, ne 20:00 UTC
Vėjas 2 kt iš Vakarų/Pietvakarių
Temperatūra 6°C
Drėgmė 100%
Slėgis 1022 hPa
Matomumas: 2500 m
rūkana

METAR: ZUUU 092000Z 25001MPS 2500 BR NSC 06/06 Q1022 NOSIG

Laikas: 04:47 (20:47 UTC)

Prognozė

Ataskaita buvo paskelbta 6 valandos ir 35 minutes, ne 14:12 UTC
Prognozė galioja nuo 09 metu 18 UTC su 10 metu 18 UTC
Vėjas 6 kt iš Pietų/Pietvakarių
Matomumas: 3500 m
Išsisklaidę debesys ne aukštis 5000 ft
rūkana
Tapsmas
nuo 09 metu 20 UTC su 09 metu 21 UTC
Matomumas: 2300 m
Tapsmas
nuo 09 metu 22 UTC su 09 metu 23 UTC
Matomumas: 0800 m
rūkas
Tapsmas
nuo 10 metu 01 UTC su 10 metu 02 UTC
Matomumas: 2000 m
rūkana
Tapsmas
nuo 10 metu 02 UTC su 10 metu 03 UTC
Matomumas: 5000 m

TAF: ZUUU 091412Z 0918/1018 20003MPS 3500 BR SCT050 TX15/1007Z TN05/0923Z BECMG 0920/0921 2300 BECMG 0922/0923 0800 FG BECMG 1001/1002 2000 BR BECMG 1002/1003 5000

Orai ataskaitas ir orų prognozės (METAR, TAF).

turimą stotys yra geltonos ir raudonos taškus žemėlapyje.

Perkelti pele per norėdami pamatyti stoties vardą.

Tada spustelėkite, norėdami matyti oro stebėjimo ir prognozės.

Norėdami pakeisti žemėlapį: spustelėkite ant žalios mygtukų su juodo kryžiaus žemyn,; žalią mygtuką su brūkšneliu, jei norite nutolinti; arba žalių rodyklių gretimoms žemėlapius.


METAR-TAF: